<?xml version='1.0' encoding='UTF-8'?><gpx version="1.1" creator="JPX - https://github.com/jenetics/jpx" xmlns="http://www.topografix.com/GPX/1/1"><trk><trkseg><trkpt lat="42.694229757471405" lon="12.717619575644123"><ele>501.0</ele><time>2026-04-11T07:08:15Z</time></trkpt><trkpt lat="42.69418204832968" lon="12.717553365358599"><ele>501.0</ele><time>2026-04-11T07:08:34Z</time></trkpt><trkpt lat="42.6941389856462" lon="12.717458650760806"><ele>501.0</ele><time>2026-04-11T07:08:38Z</time></trkpt><trkpt lat="42.694081661220906" lon="12.71742266327037"><ele>501.0</ele><time>2026-04-11T07:08:41Z</time></trkpt><trkpt lat="42.69404900656398" lon="12.717339308142554"><ele>501.0</ele><time>2026-04-11T07:08:45Z</time></trkpt><trkpt lat="42.69403633782284" lon="12.717254140741396"><ele>501.0</ele><time>2026-04-11T07:08:51Z</time></trkpt><trkpt lat="42.694052801487" lon="12.717161484613797"><ele>501.0</ele><time>2026-04-11T07:08:59Z</time></trkpt><trkpt lat="42.694056367407676" lon="12.717074436453622"><ele>501.0</ele><time>2026-04-11T07:09:05Z</time></trkpt><trkpt lat="42.693998236468815" lon="12.717009888658085"><ele>501.0</ele><time>2026-04-11T07:09:12Z</time></trkpt><trkpt lat="42.6939471225369" lon="12.71695887060259"><ele>501.0</ele><time>2026-04-11T07:09:18Z</time></trkpt><trkpt lat="42.69401789127577" lon="12.716997547262594"><ele>501.0</ele><time>2026-04-11T07:09:34.999Z</time></trkpt><trkpt lat="42.694024976659094" lon="12.717092868722188"><ele>501.0</ele><time>2026-04-11T07:10:20Z</time></trkpt><trkpt lat="42.69402205396812" lon="12.717183932335892"><ele>501.0</ele><time>2026-04-11T07:10:26Z</time></trkpt><trkpt lat="42.69402280147254" lon="12.717276317583668"><ele>501.0</ele><time>2026-04-11T07:10:32Z</time></trkpt><trkpt lat="42.69404138825485" lon="12.717373518216887"><ele>501.0</ele><time>2026-04-11T07:10:37Z</time></trkpt><trkpt lat="42.69410436104767" lon="12.71742378965675"><ele>501.0</ele><time>2026-04-11T07:10:42Z</time></trkpt><trkpt lat="42.69413173181085" lon="12.717512730914663"><ele>501.0</ele><time>2026-04-11T07:10:48Z</time></trkpt><trkpt lat="42.69412774128751" lon="12.717601683178508"><ele>501.0</ele><time>2026-04-11T07:10:54Z</time></trkpt><trkpt lat="42.69414984256986" lon="12.717683210768696"><ele>501.0</ele><time>2026-04-11T07:11:01Z</time></trkpt><trkpt lat="42.69417260941416" lon="12.717764849368866"><ele>501.0</ele><time>2026-04-11T07:11:06Z</time></trkpt><trkpt lat="42.69419485604983" lon="12.717849533617754"><ele>501.0</ele><time>2026-04-11T07:11:13Z</time></trkpt><trkpt lat="42.69419206107882" lon="12.717989388306046"><ele>498.7142857142857</ele><time>2026-04-11T07:11:31Z</time></trkpt><trkpt lat="42.69418798124587" lon="12.71807786392255"><ele>496.42857142857144</ele><time>2026-04-11T07:11:44Z</time></trkpt><trkpt lat="42.69418847782582" lon="12.718168486026192"><ele>494.14285714285717</ele><time>2026-04-11T07:11:53Z</time></trkpt><trkpt lat="42.69417815445095" lon="12.718260342130266"><ele>491.8571428571429</ele><time>2026-04-11T07:12:06Z</time></trkpt><trkpt lat="42.69416192678991" lon="12.71834621763169"><ele>489.57142857142856</ele><time>2026-04-11T07:12:28Z</time></trkpt><trkpt lat="42.6941290746741" lon="12.718428883265233"><ele>487.28571428571433</ele><time>2026-04-11T07:12:32Z</time></trkpt><trkpt lat="42.69408776685902" lon="12.718501518434593"><ele>485.00000000000006</ele><time>2026-04-11T07:12:37Z</time></trkpt><trkpt lat="42.69406131575907" lon="12.718581391645463"><ele>483.8571428571429</ele><time>2026-04-11T07:12:41Z</time></trkpt><trkpt lat="42.69400786316298" lon="12.718635963164704"><ele>482.7142857142857</ele><time>2026-04-11T07:12:46Z</time></trkpt><trkpt lat="42.69396019660197" lon="12.718694801208722"><ele>481.57142857142856</ele><time>2026-04-11T07:12:51Z</time></trkpt><trkpt lat="42.69390304777108" lon="12.718756395378572"><ele>480.42857142857144</ele><time>2026-04-11T07:12:56Z</time></trkpt><trkpt lat="42.69383650842469" lon="12.718803094635167"><ele>479.2857142857142</ele><time>2026-04-11T07:13:01Z</time></trkpt><trkpt lat="42.6937638990448" lon="12.718828770949996"><ele>478.1428571428571</ele><time>2026-04-11T07:13:06Z</time></trkpt><trkpt lat="42.69372714978268" lon="12.71890585418402"><ele>477.0</ele><time>2026-04-11T07:13:15Z</time></trkpt><trkpt lat="42.69368783020928" lon="12.718988354433213"><ele>477.0</ele><time>2026-04-11T07:13:25Z</time></trkpt><trkpt lat="42.69362419254845" lon="12.719026412434358"><ele>476.99999999999994</ele><time>2026-04-11T07:13:34Z</time></trkpt><trkpt lat="42.69356171929198" lon="12.719004742612064"><ele>477.0</ele><time>2026-04-11T07:13:38Z</time></trkpt><trkpt lat="42.69353147417331" lon="12.718927606646119"><ele>477.0</ele><time>2026-04-11T07:13:42Z</time></trkpt><trkpt lat="42.69353681660092" lon="12.718837518511414"><ele>476.99999999999994</ele><time>2026-04-11T07:13:47Z</time></trkpt><trkpt lat="42.693604277699706" lon="12.71881263525304"><ele>477.0</ele><time>2026-04-11T07:13:52Z</time></trkpt><trkpt lat="42.69366321263297" lon="12.718773476343943"><ele>477.0</ele><time>2026-04-11T07:13:58Z</time></trkpt><trkpt lat="42.693716327512135" lon="12.718726519784768"><ele>477.0</ele><time>2026-04-11T07:14:13Z</time></trkpt><trkpt lat="42.693720115182934" lon="12.71863832403693"><ele>476.99999999999994</ele><time>2026-04-11T07:14:19Z</time></trkpt><trkpt lat="42.693684742773556" lon="12.718729818206382"><ele>477.0</ele><time>2026-04-11T07:14:28Z</time></trkpt><trkpt lat="42.69364020455473" lon="12.718816472566354"><ele>477.0</ele><time>2026-04-11T07:14:33Z</time></trkpt><trkpt lat="42.693660914895005" lon="12.71871772238437"><ele>476.99999999999994</ele><time>2026-04-11T07:14:57Z</time></trkpt><trkpt lat="42.69371875269279" lon="12.718642255300729"><ele>477.0</ele><time>2026-04-11T07:15:03Z</time></trkpt><trkpt lat="42.69371869364139" lon="12.718548188049464"><ele>477.0</ele><time>2026-04-11T07:15:07Z</time></trkpt><trkpt lat="42.69366182175308" lon="12.718495352466482"><ele>477.4285714285714</ele><time>2026-04-11T07:15:14Z</time></trkpt><trkpt lat="42.69358758136378" lon="12.71846398255011"><ele>477.8571428571428</ele><time>2026-04-11T07:15:25Z</time></trkpt><trkpt lat="42.693538489382654" lon="12.718388349377651"><ele>478.2857142857143</ele><time>2026-04-11T07:17:01Z</time></trkpt><trkpt lat="42.69348892398718" lon="12.718333570168076"><ele>478.71428571428567</ele><time>2026-04-11T07:17:06Z</time></trkpt><trkpt lat="42.69342688505439" lon="12.718278739012622"><ele>479.1428571428571</ele><time>2026-04-11T07:17:13Z</time></trkpt><trkpt lat="42.69337663307807" lon="12.718222713995122"><ele>479.57142857142856</ele><time>2026-04-11T07:17:18Z</time></trkpt><trkpt lat="42.6933244844141" lon="12.718169346999884"><ele>480.0</ele><time>2026-04-11T07:17:24Z</time></trkpt><trkpt lat="42.693293481175075" lon="12.718093048554811"><ele>480.0</ele><time>2026-04-11T07:17:29Z</time></trkpt><trkpt lat="42.69325941666369" lon="12.718018285763964"><ele>480.0</ele><time>2026-04-11T07:17:34Z</time></trkpt><trkpt lat="42.69321814535832" lon="12.717953173589892"><ele>480.0</ele><time>2026-04-11T07:17:40Z</time></trkpt><trkpt lat="42.693175813896254" lon="12.717877313285312"><ele>480.0</ele><time>2026-04-11T07:17:49Z</time></trkpt><trkpt lat="42.6931126058458" lon="12.717910404579374"><ele>480.0</ele><time>2026-04-11T07:18:36Z</time></trkpt><trkpt lat="42.69305814413062" lon="12.717957809722312"><ele>480.0</ele><time>2026-04-11T07:19:50Z</time></trkpt><trkpt lat="42.693004214548814" lon="12.717906620783523"><ele>480.0</ele><time>2026-04-11T07:20:01Z</time></trkpt><trkpt lat="42.692949036493175" lon="12.717859171222717"><ele>480.0</ele><time>2026-04-11T07:20:07Z</time></trkpt><trkpt lat="42.69287956184021" lon="12.717838798680017"><ele>480.0</ele><time>2026-04-11T07:20:11Z</time></trkpt><trkpt lat="42.692833494707024" lon="12.717774983217309"><ele>480.0</ele><time>2026-04-11T07:20:17Z</time></trkpt><trkpt lat="42.69276683631587" lon="12.717758734828562"><ele>480.0</ele><time>2026-04-11T07:20:28Z</time></trkpt><trkpt lat="42.69272574001209" lon="12.717685808421347"><ele>480.0</ele><time>2026-04-11T07:20:33Z</time></trkpt><trkpt lat="42.69267779472873" lon="12.71760753538979"><ele>480.0</ele><time>2026-04-11T07:20:38Z</time></trkpt><trkpt lat="42.692619334077776" lon="12.717552887206228"><ele>480.0</ele><time>2026-04-11T07:20:45Z</time></trkpt><trkpt lat="42.69255857330021" lon="12.717508163492953"><ele>481.0</ele><time>2026-04-11T07:20:51Z</time></trkpt><trkpt lat="42.69247900166993" lon="12.717545102517525"><ele>482.0</ele><time>2026-04-11T07:21:05Z</time></trkpt><trkpt lat="42.69242630106687" lon="12.717489391641257"><ele>483.0</ele><time>2026-04-11T07:21:15Z</time></trkpt><trkpt lat="42.69237325511899" lon="12.717432781840976"><ele>484.0</ele><time>2026-04-11T07:21:23Z</time></trkpt><trkpt lat="42.69231017844083" lon="12.717375138453779"><ele>485.0</ele><time>2026-04-11T07:21:28Z</time></trkpt><trkpt lat="42.69225398341509" lon="12.717321705234392"><ele>486.0</ele><time>2026-04-11T07:21:42Z</time></trkpt><trkpt lat="42.69219425183363" lon="12.7172688853673"><ele>487.0</ele><time>2026-04-11T07:21:50Z</time></trkpt><trkpt lat="42.69212726931675" lon="12.717278068249644"><ele>487.0</ele><time>2026-04-11T07:22:46Z</time></trkpt><trkpt lat="42.69206240080547" lon="12.717303252667383"><ele>487.0</ele><time>2026-04-11T07:22:50Z</time></trkpt><trkpt lat="42.69199644460598" lon="12.717316741574985"><ele>487.0</ele><time>2026-04-11T07:22:53Z</time></trkpt><trkpt lat="42.69193268689245" lon="12.717327215492533"><ele>487.0</ele><time>2026-04-11T07:22:57Z</time></trkpt><trkpt lat="42.691862676207904" lon="12.717318601057835"><ele>487.0</ele><time>2026-04-11T07:23:01Z</time></trkpt><trkpt lat="42.69182015775682" lon="12.717249433470556"><ele>487.0</ele><time>2026-04-11T07:23:05Z</time></trkpt><trkpt lat="42.69174913450226" lon="12.717276498520595"><ele>487.0</ele><time>2026-04-11T07:23:11Z</time></trkpt><trkpt lat="42.69168575813277" lon="12.717233090140198"><ele>488.83333333333337</ele><time>2026-04-11T07:23:18Z</time></trkpt><trkpt lat="42.69166641006429" lon="12.7171393513479"><ele>490.6666666666667</ele><time>2026-04-11T07:23:48Z</time></trkpt><trkpt lat="42.69172068335419" lon="12.717192598535018"><ele>492.5</ele><time>2026-04-11T07:23:56Z</time></trkpt><trkpt lat="42.69161000015695" lon="12.717224647611872"><ele>494.33333333333337</ele><time>2026-04-11T07:26:55Z</time></trkpt><trkpt lat="42.691523391461494" lon="12.717220487106776"><ele>496.1666666666667</ele><time>2026-04-11T07:27:08Z</time></trkpt><trkpt lat="42.69147212539776" lon="12.717169957762756"><ele>498.0</ele><time>2026-04-11T07:27:14Z</time></trkpt><trkpt lat="42.69140984837032" lon="12.717152768223485"><ele>498.0</ele><time>2026-04-11T07:27:20Z</time></trkpt><trkpt lat="42.69134738717934" lon="12.717124600176719"><ele>497.99999999999994</ele><time>2026-04-11T07:27:36Z</time></trkpt><trkpt lat="42.69127909098764" lon="12.717104121737798"><ele>498.0</ele><time>2026-04-11T07:27:41Z</time></trkpt><trkpt lat="42.691208198294035" lon="12.717083085720198"><ele>498.0</ele><time>2026-04-11T07:27:47Z</time></trkpt><trkpt lat="42.69120041859168" lon="12.716961973190703"><ele>497.99999999999994</ele><time>2026-04-11T07:27:58Z</time></trkpt><trkpt lat="42.69127146479449" lon="12.717016911764246"><ele>498.0</ele><time>2026-04-11T07:28:09Z</time></trkpt><trkpt lat="42.691207298994755" lon="12.717045948196887"><ele>498.0</ele><time>2026-04-11T07:29:11Z</time></trkpt><trkpt lat="42.69114730979295" lon="12.717011566557773"><ele>499.0</ele><time>2026-04-11T07:29:18Z</time></trkpt><trkpt lat="42.69108411371445" lon="12.71698278022085"><ele>499.99999999999994</ele><time>2026-04-11T07:29:26Z</time></trkpt><trkpt lat="42.691018117218434" lon="12.716949045659034"><ele>501.0</ele><time>2026-04-11T07:29:34Z</time></trkpt><trkpt lat="42.69095577547632" lon="12.716922125198206"><ele>502.0</ele><time>2026-04-11T07:29:43Z</time></trkpt><trkpt lat="42.690884825616635" lon="12.716885654111236"><ele>502.99999999999994</ele><time>2026-04-11T07:30:09Z</time></trkpt><trkpt lat="42.69082728350856" lon="12.716847208182056"><ele>504.0</ele><time>2026-04-11T07:31:33Z</time></trkpt><trkpt lat="42.69076417767454" lon="12.716834334135648"><ele>505.0</ele><time>2026-04-11T07:31:45Z</time></trkpt><trkpt lat="42.690690736053796" lon="12.716819961232503"><ele>505.0</ele><time>2026-04-11T07:31:50Z</time></trkpt><trkpt lat="42.69063566302184" lon="12.716776228653048"><ele>504.99999999999994</ele><time>2026-04-11T07:31:55Z</time></trkpt><trkpt lat="42.69057311302962" lon="12.71673315690806"><ele>505.0</ele><time>2026-04-11T07:32:04Z</time></trkpt><trkpt lat="42.69062941261753" lon="12.716773992614645"><ele>505.0</ele><time>2026-04-11T07:32:25Z</time></trkpt><trkpt lat="42.690585946946435" lon="12.716702690682473"><ele>504.99999999999994</ele><time>2026-04-11T07:32:36Z</time></trkpt><trkpt lat="42.69054727371382" lon="12.716619471961875"><ele>505.0</ele><time>2026-04-11T07:32:42Z</time></trkpt><trkpt lat="42.69047915704839" lon="12.716601379866088"><ele>505.0</ele><time>2026-04-11T07:33:40Z</time></trkpt><trkpt lat="42.690419765282044" lon="12.716643010504518"><ele>505.0</ele><time>2026-04-11T07:33:56Z</time></trkpt><trkpt lat="42.69035560285455" lon="12.716622635005248"><ele>504.99999999999994</ele><time>2026-04-11T07:34:03Z</time></trkpt><trkpt lat="42.690298049195505" lon="12.716573214892103"><ele>505.0</ele><time>2026-04-11T07:34:08Z</time></trkpt><trkpt lat="42.69023097543331" lon="12.716560880085483"><ele>505.0</ele><time>2026-04-11T07:34:13Z</time></trkpt><trkpt lat="42.690156396270886" lon="12.716592320965297"><ele>504.99999999999994</ele><time>2026-04-11T07:34:20Z</time></trkpt><trkpt lat="42.690086264738724" lon="12.716593645101836"><ele>505.0</ele><time>2026-04-11T07:34:27Z</time></trkpt><trkpt lat="42.69001732117" lon="12.716612890906287"><ele>505.0</ele><time>2026-04-11T07:34:34Z</time></trkpt><trkpt lat="42.689947687090616" lon="12.716575019783312"><ele>506.57142857142856</ele><time>2026-04-11T07:34:40Z</time></trkpt><trkpt lat="42.68986648363458" lon="12.716567554920323"><ele>508.1428571428571</ele><time>2026-04-11T07:34:46Z</time></trkpt><trkpt lat="42.6897988515316" lon="12.716557468743177"><ele>509.71428571428567</ele><time>2026-04-11T07:34:51Z</time></trkpt><trkpt lat="42.68974915374992" lon="12.716501493557093"><ele>511.2857142857142</ele><time>2026-04-11T07:34:56Z</time></trkpt><trkpt lat="42.68969794023949" lon="12.716438866845161"><ele>512.8571428571429</ele><time>2026-04-11T07:35:02Z</time></trkpt><trkpt lat="42.689675735045086" lon="12.716350834969822"><ele>514.4285714285713</ele><time>2026-04-11T07:35:14Z</time></trkpt><trkpt lat="42.689628094211095" lon="12.716292442583175"><ele>516.0</ele><time>2026-04-11T07:35:22Z</time></trkpt><trkpt lat="42.689564001778294" lon="12.716278966691807"><ele>515.9999999999999</ele><time>2026-04-11T07:35:27Z</time></trkpt><trkpt lat="42.68949666070781" lon="12.716252775233187"><ele>516.0</ele><time>2026-04-11T07:35:34Z</time></trkpt><trkpt lat="42.68956840413465" lon="12.716240820655994"><ele>516.0</ele><time>2026-04-11T07:36:02Z</time></trkpt><trkpt lat="42.68950501095792" lon="12.716264605530203"><ele>516.0</ele><time>2026-04-11T07:36:19Z</time></trkpt><trkpt lat="42.68944260833726" lon="12.716235607318938"><ele>516.0</ele><time>2026-04-11T07:36:23Z</time></trkpt><trkpt lat="42.68938907685422" lon="12.716181696259179"><ele>515.9999999999999</ele><time>2026-04-11T07:36:30Z</time></trkpt><trkpt lat="42.689319342068885" lon="12.716200372327792"><ele>516.0</ele><time>2026-04-11T07:36:38Z</time></trkpt><trkpt lat="42.68925522757628" lon="12.716181542879152"><ele>517.9999999999999</ele><time>2026-04-11T07:36:44Z</time></trkpt><trkpt lat="42.689187448692756" lon="12.716184102607906"><ele>520.0</ele><time>2026-04-11T07:36:49Z</time></trkpt><trkpt lat="42.68912340442347" lon="12.71619909064788"><ele>522.0</ele><time>2026-04-11T07:36:55Z</time></trkpt><trkpt lat="42.68904791961675" lon="12.71620214484987"><ele>524.0</ele><time>2026-04-11T07:37:00Z</time></trkpt><trkpt lat="42.68898395801629" lon="12.716167865900728"><ele>526.0</ele><time>2026-04-11T07:37:06Z</time></trkpt><trkpt lat="42.68891491829623" lon="12.716166254111197"><ele>527.9999999999999</ele><time>2026-04-11T07:37:11Z</time></trkpt><trkpt lat="42.688852024174075" lon="12.716175716213371"><ele>530.0</ele><time>2026-04-11T07:37:16Z</time></trkpt><trkpt lat="42.68880523827691" lon="12.716113413049964"><ele>529.9999999999999</ele><time>2026-04-11T07:37:27Z</time></trkpt><trkpt lat="42.68874478987242" lon="12.716080052180414"><ele>530.0</ele><time>2026-04-11T07:37:36Z</time></trkpt><trkpt lat="42.688678701471396" lon="12.716038960844427"><ele>530.0</ele><time>2026-04-11T07:37:43Z</time></trkpt><trkpt lat="42.68860888859945" lon="12.7160044044447"><ele>530.0</ele><time>2026-04-11T07:37:48Z</time></trkpt><trkpt lat="42.688556218155014" lon="12.715953020675993"><ele>530.0</ele><time>2026-04-11T07:37:55Z</time></trkpt><trkpt lat="42.688497151575774" lon="12.715916563763443"><ele>529.9999999999999</ele><time>2026-04-11T07:38:05Z</time></trkpt><trkpt lat="42.68843664009354" lon="12.715980987884228"><ele>530.0</ele><time>2026-04-11T07:38:15Z</time></trkpt><trkpt lat="42.688379426158676" lon="12.715938982403285"><ele>530.1428571428571</ele><time>2026-04-11T07:38:23Z</time></trkpt><trkpt lat="42.68831382894882" lon="12.715918501307133"><ele>530.2857142857142</ele><time>2026-04-11T07:38:39Z</time></trkpt><trkpt lat="42.688246988658086" lon="12.715891945433626"><ele>530.4285714285714</ele><time>2026-04-11T07:38:44.999Z</time></trkpt><trkpt lat="42.688315322015924" lon="12.715909432420661"><ele>530.5714285714286</ele><time>2026-04-11T07:38:56Z</time></trkpt><trkpt lat="42.68838413062147" lon="12.715945274143724"><ele>530.7142857142858</ele><time>2026-04-11T07:39:03Z</time></trkpt><trkpt lat="42.68843849701232" lon="12.716004738411355"><ele>530.8571428571429</ele><time>2026-04-11T07:39:42Z</time></trkpt><trkpt lat="42.688500258040804" lon="12.716042539311452"><ele>531.0</ele><time>2026-04-11T07:39:46Z</time></trkpt><trkpt lat="42.68856246937678" lon="12.716067376049756"><ele>530.8571428571429</ele><time>2026-04-11T07:39:50Z</time></trkpt><trkpt lat="42.68863807347682" lon="12.71608676518572"><ele>530.7142857142858</ele><time>2026-04-11T07:39:55Z</time></trkpt><trkpt lat="42.68870570754855" lon="12.716100009379838"><ele>530.5714285714286</ele><time>2026-04-11T07:39:59Z</time></trkpt><trkpt lat="42.68877590360925" lon="12.716115478612393"><ele>530.4285714285714</ele><time>2026-04-11T07:40:04Z</time></trkpt><trkpt lat="42.68884539115268" lon="12.716121179873921"><ele>530.2857142857142</ele><time>2026-04-11T07:40:09Z</time></trkpt><trkpt lat="42.68887858122909" lon="12.716199676594155"><ele>530.1428571428571</ele><time>2026-04-11T07:40:39Z</time></trkpt><trkpt lat="42.688947803413505" lon="12.716211651290909"><ele>530.0</ele><time>2026-04-11T07:40:46Z</time></trkpt><trkpt lat="42.689013302704105" lon="12.71624279203935"><ele>529.9999999999999</ele><time>2026-04-11T07:40:51Z</time></trkpt><trkpt lat="42.68908172664546" lon="12.716256147417006"><ele>530.0</ele><time>2026-04-11T07:40:57Z</time></trkpt><trkpt lat="42.68914949896226" lon="12.716267316587212"><ele>530.0</ele><time>2026-04-11T07:41:01Z</time></trkpt><trkpt lat="42.689215740485324" lon="12.716296940259532"><ele>530.0</ele><time>2026-04-11T07:41:05Z</time></trkpt><trkpt lat="42.68927070757663" lon="12.716342009105983"><ele>530.0</ele><time>2026-04-11T07:41:10Z</time></trkpt><trkpt lat="42.689362425784566" lon="12.716361241140108"><ele>529.9999999999999</ele><time>2026-04-11T07:43:06Z</time></trkpt><trkpt lat="42.689414713177044" lon="12.716434166598532"><ele>530.0</ele><time>2026-04-11T07:43:11Z</time></trkpt><trkpt lat="42.689350844438074" lon="12.716454056620647"><ele>529.9999999999999</ele><time>2026-04-11T07:43:16Z</time></trkpt><trkpt lat="42.689289869890324" lon="12.71641602047331"><ele>530.0</ele><time>2026-04-11T07:43:21Z</time></trkpt><trkpt lat="42.68935392930676" lon="12.71637628223455"><ele>530.0</ele><time>2026-04-11T07:43:32Z</time></trkpt><trkpt lat="42.68941739331713" lon="12.71638421955902"><ele>530.0</ele><time>2026-04-11T07:43:36Z</time></trkpt><trkpt lat="42.68948497076632" lon="12.716382854777164"><ele>530.0</ele><time>2026-04-11T07:43:43Z</time></trkpt><trkpt lat="42.689547056020494" lon="12.716326375073594"><ele>529.9999999999999</ele><time>2026-04-11T07:43:50Z</time></trkpt><trkpt lat="42.689598146977836" lon="12.716384003439511"><ele>530.0</ele><time>2026-04-11T07:43:56Z</time></trkpt><trkpt lat="42.68965126189254" lon="12.716438820241764"><ele>527.9999999999999</ele><time>2026-04-11T07:44:05Z</time></trkpt><trkpt lat="42.68970398259468" lon="12.716500788557546"><ele>526.0</ele><time>2026-04-11T07:44:13Z</time></trkpt><trkpt lat="42.6897742182451" lon="12.716550625702967"><ele>524.0</ele><time>2026-04-11T07:44:17Z</time></trkpt><trkpt lat="42.68984741229733" lon="12.71656826269159"><ele>522.0</ele><time>2026-04-11T07:44:22Z</time></trkpt><trkpt lat="42.68991504126626" lon="12.716599400020336"><ele>520.0</ele><time>2026-04-11T07:44:28Z</time></trkpt><trkpt lat="42.68997872164371" lon="12.71662493214832"><ele>517.9999999999999</ele><time>2026-04-11T07:44:34Z</time></trkpt><trkpt lat="42.69005864514327" lon="12.716635181731556"><ele>516.0</ele><time>2026-04-11T07:44:42Z</time></trkpt><trkpt lat="42.69010401748268" lon="12.716705855297292"><ele>515.9999999999999</ele><time>2026-04-11T07:44:46Z</time></trkpt><trkpt lat="42.69017399500722" lon="12.716715411081779"><ele>516.0</ele><time>2026-04-11T07:44:51Z</time></trkpt><trkpt lat="42.69023215590909" lon="12.716661049132897"><ele>516.0</ele><time>2026-04-11T07:44:55.999Z</time></trkpt><trkpt lat="42.690281230147605" lon="12.716721987553392"><ele>516.0</ele><time>2026-04-11T07:44:59.999Z</time></trkpt><trkpt lat="42.69032581067678" lon="12.716800385303358"><ele>516.0</ele><time>2026-04-11T07:45:05.999Z</time></trkpt><trkpt lat="42.69038442919505" lon="12.716857703741367"><ele>515.9999999999999</ele><time>2026-04-11T07:45:12Z</time></trkpt><trkpt lat="42.69045403599817" lon="12.716896004907095"><ele>516.0</ele><time>2026-04-11T07:45:23Z</time></trkpt><trkpt lat="42.690501661298555" lon="12.716821956184084"><ele>515.9999999999999</ele><time>2026-04-11T07:46:06Z</time></trkpt><trkpt lat="42.690557729057446" lon="12.716782872370493"><ele>516.0</ele><time>2026-04-11T07:46:10Z</time></trkpt><trkpt lat="42.69061688080107" lon="12.716813897042908"><ele>516.0</ele><time>2026-04-11T07:46:13Z</time></trkpt><trkpt lat="42.690669811847464" lon="12.716878393987908"><ele>516.0</ele><time>2026-04-11T07:46:20Z</time></trkpt><trkpt lat="42.69072270702128" lon="12.716934377468355"><ele>516.0</ele><time>2026-04-11T07:46:25Z</time></trkpt><trkpt lat="42.690795001944586" lon="12.716978579428265"><ele>515.9999999999999</ele><time>2026-04-11T07:47:24Z</time></trkpt><trkpt lat="42.69072135554277" lon="12.716974065824816"><ele>516.0</ele><time>2026-04-11T07:47:35Z</time></trkpt><trkpt lat="42.69080250464484" lon="12.716994851898919"><ele>515.9999999999999</ele><time>2026-04-11T07:47:46Z</time></trkpt><trkpt lat="42.69086778573192" lon="12.717021753249139"><ele>516.0</ele><time>2026-04-11T07:47:51Z</time></trkpt><trkpt lat="42.690924815376526" lon="12.717059260973665"><ele>516.0</ele><time>2026-04-11T07:47:55Z</time></trkpt><trkpt lat="42.690997102680285" lon="12.71707288295294"><ele>516.0</ele><time>2026-04-11T07:47:59Z</time></trkpt><trkpt lat="42.69105677528143" lon="12.717133817065136"><ele>516.0</ele><time>2026-04-11T07:48:04Z</time></trkpt><trkpt lat="42.691124782213905" lon="12.717172384937804"><ele>515.9999999999999</ele><time>2026-04-11T07:48:09Z</time></trkpt><trkpt lat="42.691197281271734" lon="12.717179893710265"><ele>516.0</ele><time>2026-04-11T07:48:13Z</time></trkpt><trkpt lat="42.69125531001276" lon="12.717225830778283"><ele>513.4285714285713</ele><time>2026-04-11T07:48:18Z</time></trkpt><trkpt lat="42.69132166114554" lon="12.717244288533246"><ele>510.85714285714283</ele><time>2026-04-11T07:48:24Z</time></trkpt><trkpt lat="42.691384938637356" lon="12.717288594733828"><ele>508.2857142857142</ele><time>2026-04-11T07:48:29Z</time></trkpt><trkpt lat="42.69144795233933" lon="12.717335513806923"><ele>505.71428571428567</ele><time>2026-04-11T07:48:34Z</time></trkpt><trkpt lat="42.69138978453305" lon="12.717279619713379"><ele>503.1428571428571</ele><time>2026-04-11T07:48:47Z</time></trkpt><trkpt lat="42.69145333976361" lon="12.717314315302355"><ele>500.57142857142856</ele><time>2026-04-11T07:49:04Z</time></trkpt><trkpt lat="42.69151271527014" lon="12.717385893237436"><ele>498.0</ele><time>2026-04-11T07:49:09Z</time></trkpt><trkpt lat="42.6915784766946" lon="12.7173738027676"><ele>498.0</ele><time>2026-04-11T07:49:21Z</time></trkpt><trkpt lat="42.69165101887429" lon="12.717387028307199"><ele>497.99999999999994</ele><time>2026-04-11T07:49:27Z</time></trkpt><trkpt lat="42.6917097834432" lon="12.717427313384249"><ele>498.0</ele><time>2026-04-11T07:49:33Z</time></trkpt><trkpt lat="42.69176161726957" lon="12.71737510896665"><ele>498.0</ele><time>2026-04-11T07:49:40Z</time></trkpt><trkpt lat="42.69182661817046" lon="12.71735239961578"><ele>497.99999999999994</ele><time>2026-04-11T07:49:47Z</time></trkpt><trkpt lat="42.69189868720295" lon="12.717347991981647"><ele>498.0</ele><time>2026-04-11T07:49:51Z</time></trkpt><trkpt lat="42.691961103777444" lon="12.717394807996032"><ele>498.0</ele><time>2026-04-11T07:49:57Z</time></trkpt><trkpt lat="42.69200740014597" lon="12.717453399955344"><ele>496.4285714285714</ele><time>2026-04-11T07:50:01Z</time></trkpt><trkpt lat="42.6920699238693" lon="12.717485178194035"><ele>494.8571428571428</ele><time>2026-04-11T07:50:08Z</time></trkpt><trkpt lat="42.69214055299272" lon="12.71747066803235"><ele>493.2857142857143</ele><time>2026-04-11T07:50:13Z</time></trkpt><trkpt lat="42.69218203958568" lon="12.71754968681058"><ele>491.71428571428567</ele><time>2026-04-11T07:50:17Z</time></trkpt><trkpt lat="42.69224752602948" lon="12.71756936715552"><ele>490.1428571428571</ele><time>2026-04-11T07:50:21Z</time></trkpt><trkpt lat="42.69230244684369" lon="12.717511222541265"><ele>488.57142857142856</ele><time>2026-04-11T07:50:31Z</time></trkpt><trkpt lat="42.69235444483422" lon="12.717562460276575"><ele>487.0</ele><time>2026-04-11T07:50:43Z</time></trkpt><trkpt lat="42.69239894889173" lon="12.71762406838036"><ele>487.0</ele><time>2026-04-11T07:51:15Z</time></trkpt><trkpt lat="42.69245631553246" lon="12.717580372650621"><ele>487.0</ele><time>2026-04-11T07:51:28Z</time></trkpt><trkpt lat="42.69251884308079" lon="12.717612050712932"><ele>487.0</ele><time>2026-04-11T07:51:32Z</time></trkpt><trkpt lat="42.6925839255152" lon="12.71761537313398"><ele>487.0</ele><time>2026-04-11T07:51:39Z</time></trkpt><trkpt lat="42.69263038679063" lon="12.717686767877925"><ele>487.0</ele><time>2026-04-11T07:51:58Z</time></trkpt><trkpt lat="42.69268150596039" lon="12.71775974723675"><ele>487.0</ele><time>2026-04-11T07:52:03Z</time></trkpt><trkpt lat="42.692748259094934" lon="12.717811618018086"><ele>487.0</ele><time>2026-04-11T07:52:10Z</time></trkpt><trkpt lat="42.692800498442914" lon="12.71786576867915"><ele>486.0</ele><time>2026-04-11T07:52:17Z</time></trkpt><trkpt lat="42.692861970346705" lon="12.717910121601014"><ele>485.0</ele><time>2026-04-11T07:52:20Z</time></trkpt><trkpt lat="42.69292039200247" lon="12.717957851248435"><ele>484.0</ele><time>2026-04-11T07:52:25Z</time></trkpt><trkpt lat="42.69298755710572" lon="12.717976129949141"><ele>483.0</ele><time>2026-04-11T07:52:31Z</time></trkpt><trkpt lat="42.69305280278125" lon="12.718008045695104"><ele>482.0</ele><time>2026-04-11T07:52:36Z</time></trkpt><trkpt lat="42.69312470982052" lon="12.718052835707569"><ele>481.0</ele><time>2026-04-11T07:52:42Z</time></trkpt><trkpt lat="42.69320284796102" lon="12.718061753657523"><ele>480.0</ele><time>2026-04-11T07:52:48Z</time></trkpt><trkpt lat="42.6932510028247" lon="12.718129123460871"><ele>480.0</ele><time>2026-04-11T07:52:53Z</time></trkpt><trkpt lat="42.69322736289355" lon="12.718211062325052"><ele>480.0</ele><time>2026-04-11T07:52:58Z</time></trkpt><trkpt lat="42.69320699876678" lon="12.718109257449035"><ele>480.0</ele><time>2026-04-11T07:53:24.999Z</time></trkpt><trkpt lat="42.69320208421927" lon="12.71819604324355"><ele>480.0</ele><time>2026-04-11T07:53:30.999Z</time></trkpt><trkpt lat="42.693157703620955" lon="12.718288237637879"><ele>480.0</ele><time>2026-04-11T07:53:36Z</time></trkpt><trkpt lat="42.69309564159849" lon="12.718349661310544"><ele>480.0</ele><time>2026-04-11T07:53:51Z</time></trkpt><trkpt lat="42.69316195699094" lon="12.71836733851745"><ele>480.0</ele><time>2026-04-11T07:55:19Z</time></trkpt><trkpt lat="42.69322420335083" lon="12.718289064596034"><ele>480.0</ele><time>2026-04-11T07:55:22Z</time></trkpt><trkpt lat="42.69329251453152" lon="12.718288643790729"><ele>480.0</ele><time>2026-04-11T07:55:31.999Z</time></trkpt><trkpt lat="42.69333903747723" lon="12.718374125386212"><ele>480.0</ele><time>2026-04-11T07:55:39Z</time></trkpt><trkpt lat="42.69334431591113" lon="12.71846914365784"><ele>480.0</ele><time>2026-04-11T07:55:46Z</time></trkpt><trkpt lat="42.69334308529053" lon="12.718555657728581"><ele>480.0</ele><time>2026-04-11T07:55:50Z</time></trkpt><trkpt lat="42.6933696361311" lon="12.718654022826795"><ele>480.0</ele><time>2026-04-11T07:55:55Z</time></trkpt><trkpt lat="42.69339422681982" lon="12.718740421979058"><ele>480.0</ele><time>2026-04-11T07:56:00Z</time></trkpt><trkpt lat="42.69343514457167" lon="12.71881704632786"><ele>481.0</ele><time>2026-04-11T07:56:05Z</time></trkpt><trkpt lat="42.69346671998161" lon="12.718898857068096"><ele>482.0</ele><time>2026-04-11T07:56:10Z</time></trkpt><trkpt lat="42.693499941796105" lon="12.718979338865246"><ele>483.0</ele><time>2026-04-11T07:56:15Z</time></trkpt><trkpt lat="42.693524772434245" lon="12.719072732534313"><ele>484.0</ele><time>2026-04-11T07:56:21Z</time></trkpt><trkpt lat="42.69354747508658" lon="12.719163081384513"><ele>485.0</ele><time>2026-04-11T07:56:26Z</time></trkpt><trkpt lat="42.69355547414529" lon="12.719261092782897"><ele>486.0</ele><time>2026-04-11T07:56:32Z</time></trkpt><trkpt lat="42.69351380004076" lon="12.71918868714989"><ele>487.0</ele><time>2026-04-11T07:57:07Z</time></trkpt><trkpt lat="42.6935746840157" lon="12.719162710150835"><ele>485.57142857142856</ele><time>2026-04-11T07:57:50Z</time></trkpt><trkpt lat="42.69362947236422" lon="12.719106843985868"><ele>484.1428571428571</ele><time>2026-04-11T07:57:55Z</time></trkpt><trkpt lat="42.693681869471014" lon="12.719047166725105"><ele>482.71428571428567</ele><time>2026-04-11T07:58:00Z</time></trkpt><trkpt lat="42.693752183686996" lon="12.719052949366208"><ele>481.2857142857143</ele><time>2026-04-11T07:58:08Z</time></trkpt><trkpt lat="42.693815335484814" lon="12.719079425572502"><ele>479.8571428571428</ele><time>2026-04-11T07:59:59Z</time></trkpt><trkpt lat="42.69384584140394" lon="12.719154507305042"><ele>478.4285714285714</ele><time>2026-04-11T08:00:06Z</time></trkpt><trkpt lat="42.69391471191762" lon="12.719190275366715"><ele>477.0</ele><time>2026-04-11T08:00:44Z</time></trkpt><trkpt lat="42.69395640022214" lon="12.719121074968795"><ele>477.0</ele><time>2026-04-11T08:00:48Z</time></trkpt><trkpt lat="42.693945737208615" lon="12.719033134212278"><ele>476.99999999999994</ele><time>2026-04-11T08:00:52Z</time></trkpt><trkpt lat="42.693976914573526" lon="12.718953743689779"><ele>477.0</ele><time>2026-04-11T08:00:59Z</time></trkpt><trkpt lat="42.69399483076863" lon="12.718871224528053"><ele>477.0</ele><time>2026-04-11T08:01:09Z</time></trkpt><trkpt lat="42.69401316875114" lon="12.718773800895923"><ele>476.99999999999994</ele><time>2026-04-11T08:01:22Z</time></trkpt><trkpt lat="42.69403414056108" lon="12.718690482704561"><ele>477.0</ele><time>2026-04-11T08:01:38Z</time></trkpt><trkpt lat="42.6940635909064" lon="12.718608096753762"><ele>477.0</ele><time>2026-04-11T08:01:43Z</time></trkpt><trkpt lat="42.69409973026534" lon="12.71853507394254"><ele>478.1428571428571</ele><time>2026-04-11T08:01:48Z</time></trkpt><trkpt lat="42.69415381010014" lon="12.718482588943722"><ele>479.2857142857142</ele><time>2026-04-11T08:02:27Z</time></trkpt><trkpt lat="42.69415527951632" lon="12.718391152184074"><ele>480.42857142857144</ele><time>2026-04-11T08:02:38Z</time></trkpt><trkpt lat="42.69418131608181" lon="12.718312868476263"><ele>481.57142857142856</ele><time>2026-04-11T08:02:42Z</time></trkpt><trkpt lat="42.69422205480542" lon="12.718244153250518"><ele>482.7142857142857</ele><time>2026-04-11T08:02:48Z</time></trkpt><trkpt lat="42.69427392019912" lon="12.71819517664789"><ele>483.8571428571429</ele><time>2026-04-11T08:02:56Z</time></trkpt><trkpt lat="42.69427152709534" lon="12.718105085354848"><ele>485.00000000000006</ele><time>2026-04-11T08:03:25Z</time></trkpt><trkpt lat="42.694289280696616" lon="12.718022655284285"><ele>485.00000000000006</ele><time>2026-04-11T08:03:30Z</time></trkpt><trkpt lat="42.69427815036453" lon="12.717926855057323"><ele>485.0</ele><time>2026-04-11T08:03:38Z</time></trkpt><trkpt lat="42.69426705584419" lon="12.71783922656905"><ele>485.00000000000006</ele><time>2026-04-11T08:03:43Z</time></trkpt><trkpt lat="42.69432742188974" lon="12.71786463094865"><ele>485.00000000000006</ele><time>2026-04-11T08:04:15Z</time></trkpt><trkpt lat="42.69434131297415" lon="12.71795389384246"><ele>485.0</ele><time>2026-04-11T08:04:19Z</time></trkpt><trkpt lat="42.69435120632568" lon="12.718044168937205"><ele>485.00000000000006</ele><time>2026-04-11T08:04:23Z</time></trkpt><trkpt lat="42.69435003870178" lon="12.718137324543767"><ele>485.00000000000006</ele><time>2026-04-11T08:04:27Z</time></trkpt><trkpt lat="42.69434266366793" lon="12.718239849448787"><ele>485.00000000000006</ele><time>2026-04-11T08:04:32Z</time></trkpt><trkpt lat="42.69430637951717" lon="12.718314842399527"><ele>485.0</ele><time>2026-04-11T08:04:36Z</time></trkpt><trkpt lat="42.694251416817686" lon="12.718385840494276"><ele>485.00000000000006</ele><time>2026-04-11T08:04:41Z</time></trkpt><trkpt lat="42.69420477044449" lon="12.718464772644822"><ele>485.00000000000006</ele><time>2026-04-11T08:04:47Z</time></trkpt><trkpt lat="42.694185107626616" lon="12.718550413101312"><ele>485.0</ele><time>2026-04-11T08:04:52Z</time></trkpt><trkpt lat="42.69417248201251" lon="12.718640206077318"><ele>485.00000000000006</ele><time>2026-04-11T08:04:57Z</time></trkpt><trkpt lat="42.69415006684857" lon="12.71873236525073"><ele>485.00000000000006</ele><time>2026-04-11T08:05:02Z</time></trkpt><trkpt lat="42.694131226684455" lon="12.718821757589291"><ele>483.8571428571429</ele><time>2026-04-11T08:05:07Z</time></trkpt><trkpt lat="42.694113686203615" lon="12.718910306394301"><ele>482.7142857142857</ele><time>2026-04-11T08:05:12Z</time></trkpt><trkpt lat="42.69410031861138" lon="12.719012241453706"><ele>481.57142857142856</ele><time>2026-04-11T08:05:17Z</time></trkpt><trkpt lat="42.69406404942162" lon="12.719100671275122"><ele>480.42857142857144</ele><time>2026-04-11T08:05:23Z</time></trkpt><trkpt lat="42.69403331120324" lon="12.719185982271823"><ele>479.2857142857142</ele><time>2026-04-11T08:05:28Z</time></trkpt><trkpt lat="42.693994577322826" lon="12.719273755446247"><ele>478.1428571428571</ele><time>2026-04-11T08:05:34Z</time></trkpt><trkpt lat="42.693949607142926" lon="12.719343939947503"><ele>477.0</ele><time>2026-04-11T08:05:39Z</time></trkpt><trkpt lat="42.69391085003393" lon="12.719419705341185"><ele>475.85714285714283</ele><time>2026-04-11T08:05:44Z</time></trkpt><trkpt lat="42.693887454929516" lon="12.719509793733792"><ele>474.71428571428567</ele><time>2026-04-11T08:05:49Z</time></trkpt><trkpt lat="42.69385761789001" lon="12.719591858729482"><ele>473.57142857142856</ele><time>2026-04-11T08:05:54Z</time></trkpt><trkpt lat="42.69386017955022" lon="12.719499867346059"><ele>472.42857142857144</ele><time>2026-04-11T08:06:11Z</time></trkpt><trkpt lat="42.69382052663217" lon="12.719571185014505"><ele>471.2857142857143</ele><time>2026-04-11T08:06:19Z</time></trkpt><trkpt lat="42.69375288950934" lon="12.71962410666997"><ele>470.1428571428571</ele><time>2026-04-11T08:06:25Z</time></trkpt><trkpt lat="42.69374178578172" lon="12.719711947862862"><ele>469.0</ele><time>2026-04-11T08:07:51Z</time></trkpt><trkpt lat="42.693681462573615" lon="12.71973879222661"><ele>469.0</ele><time>2026-04-11T08:08:27Z</time></trkpt><trkpt lat="42.69370014528108" lon="12.71982974918511"><ele>469.0</ele><time>2026-04-11T08:09:02Z</time></trkpt><trkpt lat="42.69377757716271" lon="12.72006830782943"><ele>469.0</ele><time>2026-04-11T08:09:06Z</time></trkpt><trkpt lat="42.693810706050044" lon="12.72022631465079"><ele>469.0</ele><time>2026-04-11T08:09:07Z</time></trkpt><trkpt lat="42.69386568078742" lon="12.720354630726925"><ele>468.2</ele><time>2026-04-11T08:09:16Z</time></trkpt><trkpt lat="42.69393042247828" lon="12.720430343804722"><ele>467.4</ele><time>2026-04-11T08:09:21Z</time></trkpt><trkpt lat="42.69394986498901" lon="12.720542542167918"><ele>466.6</ele><time>2026-04-11T08:09:24Z</time></trkpt><trkpt lat="42.69388128230226" lon="12.720782062545267"><ele>465.8</ele><time>2026-04-11T08:09:27Z</time></trkpt><trkpt lat="42.69389349904304" lon="12.720869137043515"><ele>465.0</ele><time>2026-04-11T08:09:31Z</time></trkpt><trkpt lat="42.69409342336233" lon="12.720860786648366"><ele>465.0</ele><time>2026-04-11T08:09:35Z</time></trkpt><trkpt lat="42.694077212744425" lon="12.720962778795718"><ele>465.0</ele><time>2026-04-11T08:09:37Z</time></trkpt><trkpt lat="42.694053713674414" lon="12.72106526239928"><ele>465.0</ele><time>2026-04-11T08:09:40Z</time></trkpt><trkpt lat="42.6940447618859" lon="12.721154740387544"><ele>465.0</ele><time>2026-04-11T08:09:44Z</time></trkpt><trkpt lat="42.69403963351271" lon="12.72125656645514"><ele>465.0</ele><time>2026-04-11T08:09:46Z</time></trkpt><trkpt lat="42.694007404238036" lon="12.721344036495825"><ele>465.0</ele><time>2026-04-11T08:09:49Z</time></trkpt><trkpt lat="42.69404342174861" lon="12.721433815809224"><ele>465.0</ele><time>2026-04-11T08:09:52Z</time></trkpt><trkpt lat="42.694137947288446" lon="12.72142499441975"><ele>465.2</ele><time>2026-04-11T08:09:55Z</time></trkpt><trkpt lat="42.694226049643554" lon="12.721406493880089"><ele>465.4</ele><time>2026-04-11T08:09:58Z</time></trkpt><trkpt lat="42.69430411650266" lon="12.72141017458163"><ele>465.6</ele><time>2026-04-11T08:10:01Z</time></trkpt><trkpt lat="42.69441457648328" lon="12.721441457541196"><ele>465.8</ele><time>2026-04-11T08:10:03Z</time></trkpt><trkpt lat="42.694506880261976" lon="12.721461163987232"><ele>466.0</ele><time>2026-04-11T08:10:06Z</time></trkpt><trkpt lat="42.6945872783886" lon="12.721465573251043"><ele>464.50000000000006</ele><time>2026-04-11T08:10:08.999Z</time></trkpt><trkpt lat="42.69465728014287" lon="12.721476596820898"><ele>463.0</ele><time>2026-04-11T08:10:10.999Z</time></trkpt><trkpt lat="42.69473102579323" lon="12.721511666147807"><ele>461.5</ele><time>2026-04-11T08:10:15.999Z</time></trkpt><trkpt lat="42.69481455218843" lon="12.721494098129684"><ele>460.0</ele><time>2026-04-11T08:10:18.999Z</time></trkpt><trkpt lat="42.69493115227391" lon="12.721538737295818"><ele>458.50000000000006</ele><time>2026-04-11T08:10:22.999Z</time></trkpt><trkpt lat="42.695007982493756" lon="12.721555015086244"><ele>457.0</ele><time>2026-04-11T08:10:23.999Z</time></trkpt><trkpt lat="42.69507294179004" lon="12.721572203505142"><ele>457.00000000000006</ele><time>2026-04-11T08:10:25.999Z</time></trkpt><trkpt lat="42.69514849541411" lon="12.721578864418376"><ele>457.0</ele><time>2026-04-11T08:10:28.999Z</time></trkpt><trkpt lat="42.69524378679109" lon="12.721602852066884"><ele>457.0</ele><time>2026-04-11T08:10:31Z</time></trkpt><trkpt lat="42.69531654681411" lon="12.721617106969001"><ele>457.0</ele><time>2026-04-11T08:10:33Z</time></trkpt><trkpt lat="42.695374139375424" lon="12.721665775455074"><ele>457.00000000000006</ele><time>2026-04-11T08:10:35Z</time></trkpt><trkpt lat="42.695390903604675" lon="12.721757469121883"><ele>457.0</ele><time>2026-04-11T08:10:41Z</time></trkpt><trkpt lat="42.69541288188133" lon="12.721856800217761"><ele>455.25</ele><time>2026-04-11T08:10:47.018Z</time></trkpt><trkpt lat="42.695425802979614" lon="12.721947643417376"><ele>453.5</ele><time>2026-04-11T08:10:50.021Z</time></trkpt><trkpt lat="42.69543618505559" lon="12.722265846734405"><ele>451.75</ele><time>2026-04-11T08:10:51.021Z</time></trkpt><trkpt lat="42.695351488504585" lon="12.72223616315672"><ele>450.0</ele><time>2026-04-11T08:10:52Z</time></trkpt><trkpt lat="42.695369619389936" lon="12.722324857835089"><ele>450.0</ele><time>2026-04-11T08:10:57Z</time></trkpt><trkpt lat="42.69546672223074" lon="12.7223628177546"><ele>450.0</ele><time>2026-04-11T08:11:00Z</time></trkpt><trkpt lat="42.69558252674255" lon="12.722364403576318"><ele>450.0</ele><time>2026-04-11T08:11:02Z</time></trkpt><trkpt lat="42.6956591804617" lon="12.722370835325066"><ele>450.0</ele><time>2026-04-11T08:11:03Z</time></trkpt><trkpt lat="42.695750947177245" lon="12.722375269750357"><ele>450.0</ele><time>2026-04-11T08:11:04Z</time></trkpt><trkpt lat="42.695833881082706" lon="12.722368325491814"><ele>450.0</ele><time>2026-04-11T08:11:05Z</time></trkpt><trkpt lat="42.6959658442863" lon="12.722388069837264"><ele>450.0</ele><time>2026-04-11T08:11:07Z</time></trkpt><trkpt lat="42.69604803361086" lon="12.722395033382938"><ele>450.0</ele><time>2026-04-11T08:11:09Z</time></trkpt><trkpt lat="42.69615112844757" lon="12.722402776974555"><ele>450.0</ele><time>2026-04-11T08:11:11Z</time></trkpt><trkpt lat="42.69623377361404" lon="12.722413692195394"><ele>450.0</ele><time>2026-04-11T08:11:13Z</time></trkpt><trkpt lat="42.69631512552628" lon="12.722422807643587"><ele>448.0</ele><time>2026-04-11T08:11:15Z</time></trkpt><trkpt lat="42.6963915791675" lon="12.722428300015709"><ele>448.0</ele><time>2026-04-11T08:11:17Z</time></trkpt><trkpt lat="42.696455903484015" lon="12.722435659423905"><ele>448.0</ele><time>2026-04-11T08:11:20Z</time></trkpt></trkseg></trk></gpx>